createdAt,value
2022-10-13T00:01:13.375Z,5.70
2022-10-13T00:03:42.145Z,5.70
2022-10-13T00:06:10.884Z,5.60
2022-10-13T00:08:39.019Z,5.70
2022-10-13T00:11:11.960Z,5.80
2022-10-13T00:13:41.022Z,5.60
2022-10-13T00:16:09.032Z,5.80
2022-10-13T00:18:36.651Z,5.60
2022-10-13T00:21:11.880Z,5.50
2022-10-13T00:23:40.467Z,5.60
2022-10-13T00:26:10.584Z,5.50
2022-10-13T00:28:38.930Z,5.50
2022-10-13T00:31:26.963Z,5.50
2022-10-13T00:33:54.640Z,5.40
2022-10-13T00:36:23.314Z,5.40
2022-10-13T00:38:51.662Z,5.30
2022-10-13T00:41:19.280Z,5.40
2022-10-13T00:43:53.423Z,5.30
2022-10-13T00:46:26.509Z,5.30
2022-10-13T00:49:11.857Z,5.20
2022-10-13T00:51:46.607Z,5.20
2022-10-13T00:54:18.116Z,5.20
2022-10-13T00:56:46.652Z,5.30
2022-10-13T00:59:22.939Z,5.30
2022-10-13T01:01:51.791Z,5.30
2022-10-13T01:04:22.905Z,5.30
2022-10-13T01:06:51.572Z,5.30
2022-10-13T01:09:18.969Z,5.40
2022-10-13T01:12:17.734Z,5.40
2022-10-13T01:14:54.949Z,5.50
2022-10-13T01:18:10.269Z,5.70
2022-10-13T01:20:42.352Z,5.90
2022-10-13T01:23:30.825Z,6.10
2022-10-13T01:26:37.213Z,6.20
2022-10-13T01:29:43.263Z,6.20
2022-10-13T01:32:29.217Z,6.30
2022-10-13T01:35:17.867Z,6.40
2022-10-13T01:37:58.068Z,6.40
2022-10-13T01:40:36.740Z,6.50
2022-10-13T01:44:02.151Z,6.50
2022-10-13T01:46:37.649Z,6.50
2022-10-13T01:49:09.602Z,6.70
2022-10-13T01:51:38.028Z,6.60
2022-10-13T01:54:05.770Z,6.60
2022-10-13T01:56:33.319Z,6.60
2022-10-13T01:59:10.475Z,6.60
2022-10-13T02:02:10.261Z,6.70
2022-10-13T02:05:07.037Z,6.60
2022-10-13T02:07:59.306Z,6.60
2022-10-13T02:10:54.487Z,6.60
2022-10-13T02:13:24.197Z,6.60
2022-10-13T02:15:56.865Z,6.70
2022-10-13T02:18:32.091Z,6.70
2022-10-13T02:21:00.151Z,6.60
2022-10-13T02:23:28.242Z,6.60
2022-10-13T02:25:57.397Z,6.70
2022-10-13T02:28:25.802Z,6.70
2022-10-13T02:30:53.188Z,6.80
2022-10-13T02:33:20.768Z,6.90
2022-10-13T02:35:48.228Z,7.00
2022-10-13T02:38:15.910Z,6.90
2022-10-13T02:40:43.229Z,6.80
2022-10-13T02:43:10.498Z,6.80
2022-10-13T02:45:37.974Z,6.80
2022-10-13T02:48:05.675Z,6.80
2022-10-13T02:50:33.189Z,6.90
2022-10-13T02:53:00.579Z,6.90
2022-10-13T02:55:27.917Z,6.90
2022-10-13T02:57:57.997Z,6.90
2022-10-13T03:00:25.525Z,6.90
2022-10-13T03:02:52.928Z,6.80
2022-10-13T03:05:20.384Z,6.70
2022-10-13T03:07:48.061Z,6.70
2022-10-13T03:10:15.829Z,6.70
2022-10-13T03:12:43.380Z,6.70
2022-10-13T03:15:10.998Z,6.70
2022-10-13T03:17:38.339Z,6.70
2022-10-13T03:20:06.921Z,6.70
2022-10-13T03:22:34.331Z,6.70
2022-10-13T03:25:02.012Z,6.70
2022-10-13T03:27:29.547Z,6.80
2022-10-13T03:29:56.940Z,6.80
2022-10-13T03:32:24.330Z,6.80
2022-10-13T03:34:52.251Z,6.90
2022-10-13T03:37:19.586Z,7.00
2022-10-13T03:39:46.961Z,7.00
2022-10-13T03:42:14.405Z,7.10
2022-10-13T03:44:41.745Z,7.10
2022-10-13T03:47:09.197Z,6.90
2022-10-13T03:49:38.972Z,6.90
2022-10-13T03:52:06.636Z,6.90
2022-10-13T03:54:33.973Z,6.90
2022-10-13T03:57:03.480Z,6.90
2022-10-13T03:59:36.384Z,7.10
2022-10-13T04:02:04.774Z,7.10
2022-10-13T04:04:32.123Z,7.20
2022-10-13T04:06:59.584Z,7.20
2022-10-13T04:09:27.147Z,7.20
2022-10-13T04:11:54.670Z,7.20
2022-10-13T04:14:22.108Z,7.20
2022-10-13T04:16:49.762Z,7.20
2022-10-13T04:19:17.068Z,7.20
2022-10-13T04:21:44.825Z,7.20
2022-10-13T04:24:13.575Z,7.20
2022-10-13T04:26:41.567Z,7.20
2022-10-13T04:29:10.559Z,7.20
2022-10-13T04:31:39.456Z,7.10
2022-10-13T04:34:07.880Z,7.10
2022-10-13T04:36:35.267Z,7.20
2022-10-13T04:39:02.837Z,7.20
2022-10-13T04:41:30.154Z,7.20
2022-10-13T04:43:57.539Z,7.30
2022-10-13T04:46:28.537Z,7.30
2022-10-13T04:48:57.362Z,7.20
2022-10-13T04:51:29.717Z,7.30
2022-10-13T04:53:58.653Z,7.30
2022-10-13T04:56:26.283Z,7.30
2022-10-13T04:58:54.153Z,7.20
2022-10-13T05:01:23.706Z,7.20
2022-10-13T05:03:52.611Z,7.30
2022-10-13T05:06:26.460Z,7.20
2022-10-13T05:08:56.549Z,7.30
2022-10-13T05:11:25.497Z,7.30
2022-10-13T05:13:53.596Z,7.20
2022-10-13T05:16:22.303Z,7.30
2022-10-13T05:18:51.429Z,7.40
2022-10-13T05:21:22.284Z,7.40
2022-10-13T05:23:50.120Z,7.50
2022-10-13T05:26:18.408Z,7.50
2022-10-13T05:28:45.931Z,7.50
2022-10-13T05:31:21.881Z,7.50
2022-10-13T05:33:51.240Z,7.50
2022-10-13T05:36:30.056Z,7.50
2022-10-13T05:38:59.801Z,7.40
2022-10-13T05:41:28.862Z,7.40
2022-10-13T05:44:04.752Z,7.40
2022-10-13T05:46:33.799Z,7.40
2022-10-13T05:49:01.196Z,7.30
2022-10-13T05:51:35.142Z,7.30
2022-10-13T05:54:14.784Z,7.30
2022-10-13T05:56:47.473Z,7.40
2022-10-13T05:59:18.273Z,7.40
2022-10-13T06:01:48.204Z,7.30
2022-10-13T06:04:39.194Z,7.30
2022-10-13T06:07:06.588Z,7.30
2022-10-13T06:09:37.824Z,7.20
2022-10-13T06:12:06.680Z,7.30
2022-10-13T06:14:33.980Z,7.20
2022-10-13T06:17:05.122Z,7.20
2022-10-13T06:19:32.553Z,7.30
2022-10-13T06:22:08.112Z,7.30
2022-10-13T06:24:35.373Z,7.30
2022-10-13T06:27:04.770Z,7.30
2022-10-13T06:29:33.450Z,7.30
2022-10-13T06:32:00.801Z,7.30
2022-10-13T06:34:28.065Z,7.40
2022-10-13T06:36:55.695Z,7.40
2022-10-13T06:39:23.031Z,7.30
2022-10-13T06:41:50.837Z,7.40
2022-10-13T06:44:18.199Z,7.40
2022-10-13T06:46:45.548Z,7.50
2022-10-13T06:49:13.056Z,7.60
2022-10-13T06:51:40.337Z,7.80
2022-10-13T06:54:07.650Z,8.10
2022-10-13T06:56:35.004Z,8.30
2022-10-13T06:59:10.711Z,8.60
2022-10-13T07:01:41.555Z,8.90
2022-10-13T07:04:13.072Z,9.10
2022-10-13T07:06:40.406Z,9.30
2022-10-13T07:09:09.124Z,9.60
2022-10-13T07:11:36.574Z,10.00
2022-10-13T07:14:03.938Z,10.20
2022-10-13T07:16:31.537Z,10.50
2022-10-13T07:18:58.870Z,10.90
2022-10-13T07:21:26.371Z,11.00
2022-10-13T07:23:53.695Z,11.00
2022-10-13T07:26:21.015Z,10.80
2022-10-13T07:28:48.766Z,10.80
2022-10-13T07:31:18.402Z,11.00
2022-10-13T07:33:48.385Z,11.20
2022-10-13T07:36:17.924Z,11.30
2022-10-13T07:38:46.311Z,11.40
2022-10-13T07:41:14.885Z,11.60
2022-10-13T07:43:42.551Z,11.70
2022-10-13T07:46:12.641Z,12.00
2022-10-13T07:48:40.536Z,12.30
2022-10-13T07:51:10.736Z,12.90
2022-10-13T07:53:38.800Z,13.10
2022-10-13T07:56:08.493Z,13.10
2022-10-13T07:58:40.346Z,12.80
2022-10-13T08:01:08.241Z,12.50
2022-10-13T08:03:40.971Z,12.20
2022-10-13T08:06:14.692Z,12.10
2022-10-13T08:08:41.995Z,12.10
2022-10-13T08:11:16.415Z,12.20
2022-10-13T08:13:50.955Z,12.20
2022-10-13T08:16:23.786Z,12.30
2022-10-13T08:18:51.261Z,12.40
2022-10-13T08:21:53.286Z,12.60
2022-10-13T08:24:15.363Z,12.70
2022-10-13T08:26:44.412Z,13.00
2022-10-13T08:29:28.136Z,13.20
2022-10-13T08:31:55.837Z,13.30
2022-10-13T08:34:24.892Z,13.40
2022-10-13T08:36:54.821Z,13.50
2022-10-13T08:39:24.323Z,13.70
2022-10-13T08:41:52.458Z,13.70
2022-10-13T08:44:59.558Z,13.70
2022-10-13T08:47:23.771Z,13.80
2022-10-13T08:49:52.152Z,13.90
2022-10-13T08:52:26.068Z,14.00
2022-10-13T08:54:55.485Z,14.10
2022-10-13T08:57:24.291Z,14.30
2022-10-13T08:59:52.633Z,14.40
2022-10-13T09:02:30.943Z,14.60
2022-10-13T09:05:02.293Z,14.80
2022-10-13T09:07:34.809Z,14.60
2022-10-13T09:10:02.067Z,14.70
2022-10-13T09:12:29.505Z,14.60
2022-10-13T09:15:09.811Z,14.80
2022-10-13T09:17:39.499Z,14.80
2022-10-13T09:20:27.791Z,14.90
2022-10-13T09:23:19.198Z,15.10
2022-10-13T09:25:52.221Z,15.20
2022-10-13T09:28:24.009Z,15.40
2022-10-13T09:31:03.154Z,15.60
2022-10-13T09:33:35.804Z,15.60
2022-10-13T09:36:11.136Z,15.70
2022-10-13T09:38:40.498Z,15.70
2022-10-13T09:41:15.560Z,15.80
2022-10-13T09:44:02.568Z,15.90
2022-10-13T09:46:39.428Z,15.90
2022-10-13T09:49:43.514Z,16.00
2022-10-13T09:52:21.452Z,16.00
2022-10-13T09:54:55.196Z,16.20
2022-10-13T09:57:50.958Z,16.30
2022-10-13T10:00:23.650Z,16.40
2022-10-13T10:03:17.875Z,16.40
2022-10-13T10:05:51.766Z,16.40
2022-10-13T10:09:01.524Z,16.50
2022-10-13T10:11:34.888Z,16.60
2022-10-13T10:14:28.105Z,16.80
2022-10-13T10:17:28.065Z,16.60
2022-10-13T10:20:18.648Z,16.40
2022-10-13T10:22:46.005Z,16.30
2022-10-13T10:25:36.597Z,16.30
2022-10-13T10:28:37.808Z,16.30
2022-10-13T10:31:55.870Z,16.30
2022-10-13T10:35:11.121Z,16.20
2022-10-13T10:38:07.123Z,16.20
2022-10-13T10:41:10.136Z,16.20
2022-10-13T10:44:17.582Z,16.20
2022-10-13T10:46:49.758Z,16.30
2022-10-13T10:49:21.171Z,16.40
2022-10-13T10:51:49.930Z,16.50
2022-10-13T10:54:37.377Z,16.50
2022-10-13T10:57:38.081Z,16.60
2022-10-13T11:00:18.844Z,16.80
2022-10-13T11:03:13.040Z,17.00
2022-10-13T11:06:20.587Z,16.90
2022-10-13T11:08:49.521Z,17.20
2022-10-13T11:11:37.483Z,17.30
2022-10-13T11:14:25.500Z,17.30
2022-10-13T11:17:21.448Z,17.60
2022-10-13T11:19:49.455Z,17.70
2022-10-13T11:22:23.190Z,17.70
2022-10-13T11:24:55.299Z,17.80
2022-10-13T11:27:28.472Z,17.70
2022-10-13T11:29:58.998Z,17.80
2022-10-13T11:32:55.679Z,17.60
2022-10-13T11:35:27.360Z,17.60
2022-10-13T11:38:26.124Z,17.50
2022-10-13T11:41:25.064Z,17.50
2022-10-13T11:44:07.263Z,17.70
2022-10-13T11:47:19.571Z,17.80
2022-10-13T11:50:11.363Z,18.00
2022-10-13T11:53:22.003Z,18.20
2022-10-13T11:56:01.517Z,18.20
2022-10-13T11:58:30.437Z,18.20
2022-10-13T12:01:00.943Z,18.40
2022-10-13T12:03:36.613Z,18.30
2022-10-13T12:06:33.652Z,18.40
2022-10-13T12:09:04.049Z,18.50
2022-10-13T12:11:35.621Z,18.50
2022-10-13T12:14:05.714Z,18.40
2022-10-13T12:16:33.112Z,18.60
2022-10-13T12:19:19.756Z,18.70
2022-10-13T12:21:51.786Z,18.90
2022-10-13T12:24:24.925Z,18.80
2022-10-13T12:26:53.130Z,18.60
2022-10-13T12:29:25.236Z,18.40
2022-10-13T12:31:53.234Z,18.50
2022-10-13T12:34:25.120Z,18.50
2022-10-13T12:36:55.469Z,18.60
2022-10-13T12:39:25.088Z,18.80
2022-10-13T12:41:53.046Z,18.70
2022-10-13T12:44:23.956Z,18.70
2022-10-13T12:46:55.574Z,19.00
2022-10-13T12:49:31.740Z,19.00
2022-10-13T12:52:14.846Z,19.00
2022-10-13T12:54:56.165Z,19.10
2022-10-13T12:57:36.057Z,19.10
2022-10-13T13:00:27.440Z,19.00
2022-10-13T13:03:00.050Z,18.90
2022-10-13T13:05:41.044Z,18.90
2022-10-13T13:08:29.794Z,18.70
2022-10-13T13:11:08.120Z,18.60
2022-10-13T13:13:35.435Z,18.50
2022-10-13T13:16:20.531Z,18.40
2022-10-13T13:18:51.809Z,18.40
2022-10-13T13:21:20.410Z,18.40
2022-10-13T13:23:52.841Z,18.20
2022-10-13T13:26:23.469Z,18.10
2022-10-13T13:28:53.105Z,18.10
2022-10-13T13:31:25.964Z,18.20
2022-10-13T13:33:53.462Z,18.20
2022-10-13T13:36:23.555Z,18.20
2022-10-13T13:38:53.392Z,18.20
2022-10-13T13:41:21.825Z,18.20
2022-10-13T13:43:49.576Z,18.10
2022-10-13T13:46:27.814Z,18.20
2022-10-13T13:48:55.237Z,18.20
2022-10-13T13:51:22.721Z,18.20
2022-10-13T13:53:50.018Z,18.30
2022-10-13T13:56:19.695Z,18.30
2022-10-13T13:58:47.416Z,18.50
2022-10-13T14:01:15.554Z,18.70
2022-10-13T14:03:42.869Z,18.80
2022-10-13T14:06:18.870Z,18.80
2022-10-13T14:08:46.980Z,18.90
2022-10-13T14:11:14.413Z,18.80
2022-10-13T14:13:41.790Z,18.90
2022-10-13T14:16:16.701Z,18.80
2022-10-13T14:18:44.390Z,18.80
2022-10-13T14:21:11.772Z,18.60
2022-10-13T14:23:40.033Z,18.50
2022-10-13T14:26:08.756Z,18.20
2022-10-13T14:28:36.146Z,18.10
2022-10-13T14:31:06.969Z,18.00
2022-10-13T14:33:36.029Z,17.80
2022-10-13T14:36:06.115Z,17.70
2022-10-13T14:38:34.373Z,17.60
2022-10-13T14:41:04.158Z,17.50
2022-10-13T14:43:31.593Z,17.30
2022-10-13T14:46:06.314Z,17.20
2022-10-13T14:48:35.311Z,17.20
2022-10-13T14:51:06.922Z,17.10
2022-10-13T14:53:36.043Z,17.00
2022-10-13T14:56:04.127Z,17.00
2022-10-13T14:58:36.441Z,16.90
2022-10-13T15:01:04.432Z,16.90
2022-10-13T15:03:32.154Z,16.90
2022-10-13T15:05:59.594Z,16.80
2022-10-13T15:08:28.708Z,16.80
2022-10-13T15:11:05.249Z,16.70
2022-10-13T15:13:32.893Z,16.60
2022-10-13T15:16:01.174Z,16.50
2022-10-13T15:18:29.448Z,16.50
2022-10-13T15:20:57.342Z,16.30
2022-10-13T15:23:24.882Z,16.20
2022-10-13T15:25:57.491Z,16.10
2022-10-13T15:28:26.789Z,16.00
2022-10-13T15:30:54.845Z,15.80
2022-10-13T15:33:22.802Z,15.70
2022-10-13T15:35:51.009Z,15.50
2022-10-13T15:38:20.166Z,15.40
2022-10-13T15:40:48.183Z,15.30
2022-10-13T15:43:16.565Z,15.10
2022-10-13T15:45:52.788Z,15.00
2022-10-13T15:48:20.098Z,14.80
2022-10-13T15:50:47.382Z,14.70
2022-10-13T15:53:15.036Z,14.60
2022-10-13T15:55:42.308Z,14.40
2022-10-13T15:58:13.541Z,14.20
2022-10-13T16:00:41.827Z,14.10
2022-10-13T16:03:14.740Z,14.10
2022-10-13T16:05:43.242Z,14.00
2022-10-13T16:08:10.871Z,14.00
2022-10-13T16:10:44.220Z,14.30
2022-10-13T16:13:15.024Z,14.50
2022-10-13T16:15:43.008Z,14.50
2022-10-13T16:18:10.329Z,14.30
2022-10-13T16:20:39.368Z,14.20
2022-10-13T16:23:06.675Z,14.10
2022-10-13T16:25:33.981Z,14.20
2022-10-13T16:28:01.281Z,14.20
2022-10-13T16:30:30.446Z,14.10
2022-10-13T16:32:58.205Z,14.10
2022-10-13T16:35:25.529Z,13.80
2022-10-13T16:37:52.852Z,13.60
2022-10-13T16:40:20.159Z,13.50
2022-10-13T16:42:47.474Z,13.40
2022-10-13T16:45:14.759Z,13.20
2022-10-13T16:47:42.088Z,13.00
2022-10-13T16:50:09.927Z,13.00
2022-10-13T16:52:37.888Z,13.10
2022-10-13T16:55:06.398Z,13.10
2022-10-13T16:57:33.762Z,13.00
2022-10-13T17:00:01.047Z,13.00
2022-10-13T17:02:29.582Z,13.00
2022-10-13T17:04:56.915Z,13.00
2022-10-13T17:07:24.332Z,12.90
2022-10-13T17:09:51.640Z,13.00
2022-10-13T17:12:19.106Z,12.90
2022-10-13T17:14:48.068Z,12.90
2022-10-13T17:17:15.431Z,12.70
2022-10-13T17:19:42.693Z,12.70
2022-10-13T17:22:09.978Z,12.60
2022-10-13T17:24:37.225Z,12.60
2022-10-13T17:27:04.530Z,12.50
2022-10-13T17:29:34.173Z,12.40
2022-10-13T17:32:01.563Z,12.30
2022-10-13T17:34:28.841Z,12.20
2022-10-13T17:37:00.083Z,12.00
2022-10-13T17:39:27.381Z,11.80
2022-10-13T17:41:54.742Z,11.60
2022-10-13T17:44:22.026Z,11.40
2022-10-13T17:46:50.098Z,11.20
2022-10-13T17:49:17.764Z,11.20
2022-10-13T17:51:45.656Z,11.00
2022-10-13T17:54:15.925Z,11.00
2022-10-13T17:56:43.920Z,10.80
2022-10-13T17:59:11.478Z,10.80
2022-10-13T18:01:39.269Z,10.80
2022-10-13T18:04:11.189Z,10.70
2022-10-13T18:06:40.711Z,10.80
2022-10-13T18:09:13.436Z,10.80
2022-10-13T18:11:45.639Z,10.90
2022-10-13T18:14:17.572Z,10.90
2022-10-13T18:16:45.336Z,10.90
2022-10-13T18:19:13.664Z,10.90
2022-10-13T18:21:41.021Z,10.90
2022-10-13T18:24:10.074Z,11.10
2022-10-13T18:26:37.548Z,11.10
2022-10-13T18:29:06.824Z,11.20
2022-10-13T18:31:36.705Z,11.40
2022-10-13T18:34:07.063Z,11.40
2022-10-13T18:36:39.979Z,11.50
2022-10-13T18:39:15.743Z,11.40
2022-10-13T18:41:46.460Z,11.40
2022-10-13T18:44:14.193Z,11.40
2022-10-13T18:46:41.760Z,11.50
2022-10-13T18:49:12.895Z,11.40
2022-10-13T18:51:42.452Z,11.40
2022-10-13T18:54:10.684Z,11.50
2022-10-13T18:56:38.644Z,11.50
2022-10-13T18:59:07.451Z,11.50
2022-10-13T19:01:36.698Z,11.50
2022-10-13T19:04:04.998Z,11.40
2022-10-13T19:06:32.819Z,11.40
2022-10-13T19:09:03.680Z,11.30
2022-10-13T19:11:32.080Z,11.10
2022-10-13T19:14:00.687Z,11.00
2022-10-13T19:16:30.326Z,11.00
2022-10-13T19:18:58.284Z,10.90
2022-10-13T19:21:25.724Z,10.80
2022-10-13T19:23:53.172Z,10.70
2022-10-13T19:26:25.761Z,10.70
2022-10-13T19:28:58.875Z,10.60
2022-10-13T19:31:28.046Z,10.50
2022-10-13T19:33:57.730Z,10.40
2022-10-13T19:36:41.150Z,10.40
2022-10-13T19:39:16.306Z,10.30
2022-10-13T19:41:44.669Z,10.30
2022-10-13T19:44:12.527Z,10.20
2022-10-13T19:46:41.064Z,10.10
2022-10-13T19:49:08.677Z,10.00
2022-10-13T19:51:37.483Z,10.00
2022-10-13T19:54:05.194Z,9.90
2022-10-13T19:56:33.971Z,9.80
2022-10-13T19:59:04.216Z,9.70
2022-10-13T20:01:32.861Z,9.60
2022-10-13T20:04:00.432Z,9.60
2022-10-13T20:06:27.841Z,9.70
2022-10-13T20:08:55.091Z,9.60
2022-10-13T20:11:24.179Z,9.50
2022-10-13T20:13:53.378Z,9.50
2022-10-13T20:16:23.617Z,9.40
2022-10-13T20:18:56.488Z,9.40
2022-10-13T20:21:25.077Z,9.40
2022-10-13T20:23:53.025Z,9.40
2022-10-13T20:26:20.969Z,9.30
2022-10-13T20:28:49.845Z,9.30
2022-10-13T20:31:18.982Z,9.30
2022-10-13T20:33:47.115Z,9.20
2022-10-13T20:36:16.864Z,9.20
2022-10-13T20:38:44.198Z,9.00
2022-10-13T20:41:27.277Z,9.00
2022-10-13T20:43:57.004Z,9.00
2022-10-13T20:46:24.518Z,8.80
2022-10-13T20:51:41.884Z,8.90
2022-10-13T20:54:10.551Z,9.00
2022-10-13T20:56:37.958Z,9.10
2022-10-13T20:59:07.725Z,9.20
2022-10-13T21:01:35.940Z,9.20
2022-10-13T21:04:04.135Z,9.30
2022-10-13T21:06:31.662Z,9.30
2022-10-13T21:09:00.959Z,9.40
2022-10-13T21:11:28.261Z,9.40
2022-10-13T21:13:55.611Z,9.30
2022-10-13T21:16:27.221Z,9.30
2022-10-13T21:18:55.867Z,9.30
2022-10-13T21:21:25.579Z,9.10
2022-10-13T21:23:54.894Z,9.00
2022-10-13T21:26:23.497Z,8.90
2022-10-13T21:28:51.336Z,8.90
2022-10-13T21:31:20.838Z,8.90
2022-10-13T21:33:48.909Z,8.90
2022-10-13T21:36:24.782Z,8.90
2022-10-13T21:38:55.476Z,8.80
2022-10-13T21:41:23.491Z,8.80
2022-10-13T21:43:52.066Z,8.80
2022-10-13T21:46:29.309Z,8.80
2022-10-13T21:48:59.011Z,8.80
2022-10-13T21:51:32.363Z,8.80
2022-10-13T21:54:02.708Z,8.80
2022-10-13T21:56:31.602Z,8.80
2022-10-13T21:59:00.027Z,8.80
2022-10-13T22:01:27.898Z,8.90
2022-10-13T22:04:00.863Z,8.90
2022-10-13T22:06:29.577Z,8.90
2022-10-13T22:08:58.895Z,8.90
2022-10-13T22:11:29.046Z,9.00
2022-10-13T22:13:57.436Z,8.90
2022-10-13T22:16:30.769Z,9.00
2022-10-13T22:18:58.851Z,8.90
2022-10-13T22:21:29.631Z,9.00
2022-10-13T22:24:02.844Z,9.10
2022-10-13T22:26:32.978Z,9.00
2022-10-13T22:29:01.913Z,9.00
2022-10-13T22:31:30.684Z,9.00
2022-10-13T22:33:59.229Z,9.00
2022-10-13T22:36:27.713Z,9.10
2022-10-13T22:38:57.495Z,9.10
2022-10-13T22:41:25.370Z,9.10
2022-10-13T22:43:55.368Z,9.10
2022-10-13T22:46:32.801Z,9.20
2022-10-13T22:49:00.961Z,9.20
2022-10-13T22:51:30.962Z,9.20
2022-10-13T22:53:59.384Z,9.30
2022-10-13T22:56:29.076Z,9.30
2022-10-13T22:59:01.988Z,9.30
2022-10-13T23:01:29.338Z,9.30
2022-10-13T23:03:58.230Z,9.20
2022-10-13T23:06:28.190Z,9.20
2022-10-13T23:08:56.125Z,9.10
2022-10-13T23:11:23.612Z,9.20
2022-10-13T23:13:50.929Z,9.20
2022-10-13T23:16:21.781Z,9.10
2022-10-13T23:18:49.364Z,9.00
2022-10-13T23:21:28.101Z,9.00
2022-10-13T23:24:00.989Z,8.90
2022-10-13T23:26:28.976Z,8.80
2022-10-13T23:28:57.388Z,8.80
2022-10-13T23:31:26.685Z,8.80
2022-10-13T23:33:54.460Z,8.70
2022-10-13T23:36:25.284Z,8.60
2022-10-13T23:38:56.186Z,8.50
2022-10-13T23:41:23.915Z,8.50
2022-10-13T23:43:51.256Z,8.40
2022-10-13T23:46:18.628Z,8.30
2022-10-13T23:48:46.171Z,8.30
2022-10-13T23:51:24.640Z,8.30
2022-10-13T23:53:52.826Z,8.30
2022-10-13T23:56:20.821Z,8.40
2022-10-13T23:58:49.072Z,8.40
